Airfield :
LOGIN :

Register | Disclaimer

   EN    FR    IT 

 










Legend :    VFR   Marginal VFR   IFR   Intensive IFR   Very Intensive IFR
Visi :
Ceiling :
>= 8 km
>= 3000ft
5 to 8 km
1000 to 3000 ft
1500m to 5 km
500 to 1000 ft
800 to 1500m
200 to 500 ft
< 800m
< 200 ft
Symbols :   Thunderstorms  Fog  Heavy snow  Heavy precipitations  Wind > 20 kt
SIGMETs :     Misc.  Thunderstorms  Icing  Turbulence  Mountain Waves  Volcanic Ashes






- Airport Elevation : 277 ft
- IATA code : JER


EGJJ - Jersey

CURRENT METAR :
  • 080220Z AUTO 25013KT 9999 FEW040/// 06/04 Q0993 RESHSN

EXPIRED METARs :
  • 080150Z AUTO 26011KT 230V300 9999 FEW018/// SCT040/// 05/04 Q0992 RESHSN
  • 080120Z AUTO 27013G24KT 240V300 9000 -RASN SCT019/// BKN021/// OVC024/// 06/04 Q0992 RESHRA
  • 080050Z AUTO 25023G33KT 3200 -SN FEW009/// SCT014/// BKN020/// 05/03 Q0992 RESHRA
  • 080020Z AUTO 25024G35KT 9999 -SHSN FEW020/// SCT024/// BKN028/// 06/04 Q0992 RESHRA
  • 072350Z AUTO 28022G38KT 250V310 9999 -SHSN FEW016/// SCT021/// BKN026/// 06/04 Q0992 RERA

TAF TAF EGJJ
Valid from the 08 at 03:00 until the 08 at 12:00 UTC


080159Z 0803/0812 26012KT 9999 FEW015CB SCT021
TEMPO 0803/0812 27015G25KT 7000 SHRA BKN015CB
PROB30
TEMPO 0803/0807 27025G40KT 4000 TSRAGS
ATIS : +44 1534 498 073



MET'MAP, your aeronautical weather chart ! - Copyright ORBIFLY December 2007 - Disclaimer

ORBIFLY MET'MAP TEAM :

Programming & Development : Alexandra Zaïnal
Concept & original design : Baudouin d'Aumeries
Assistance for programming : Marc-Olivier Méhu
Technical & hardware support : Manuel Goepfert

Contact : metmap@orbifly.com




SOURCES & CREDITS :

   NOAA